Time;durP1;ratioP1;P1;durP2;ratioP2;P2;SDS_P1;SDS_P2;PMS_P1;PMS_P2;Temp;Humidity;BMP_temperature;BMP_pressure;BME280_temperature;BME280_humidity;BME280_pressure;Samples;Min_cycle;Max_cycle;Signal;HPM_P1;HPM_P2
2023/10/01 06:46:54;;;;;;;14.63;6.35;;;;;;;13.25;73.93;97545.22;2094539;27;20567;-67
2023/10/01 06:48:05;;;;;;;16.45;7.10;;;;;;;13.51;73.92;97545.94;2078254;28;20742;-67
2023/10/01 06:50:14;;;;;;;17.38;6.40;;;;;;;13.91;72.08;97552.09;2091279;28;20572;-66
2023/10/01 06:51:24;;;;;;;13.25;6.22;;;;;;;13.76;72.16;97547.53;2091804;28;20188;-66
2023/10/01 06:52:29;;;;;;;14.05;6.30;;;;;;;13.49;73.46;97551.25;2089931;28;20662;-66
2023/10/01 06:53:45;;;;;;;12.77;6.32;;;;;;;13.58;73.68;97550.00;2086315;28;20204;-66
2023/10/01 06:54:46;;;;;;;14.82;6.68;;;;;;;13.85;73.25;97557.63;2086785;28;20200;-66
2023/10/01 06:55:48;;;;;;;18.73;7.45;;;;;;;13.96;72.57;97557.16;2087018;28;20576;-66
2023/10/01 06:56:50;;;;;;;16.10;7.25;;;;;;;14.13;72.62;97553.78;2086366;28;20197;-67
2023/10/01 06:57:53;;;;;;;15.13;7.03;;;;;;;13.90;73.09;97557.41;2084259;28;20741;-67
2023/10/01 07:00:21;;;;;;;13.18;5.55;;;;;;;14.27;72.72;97547.91;2083523;28;20213;-67
2023/10/01 07:01:35;;;;;;;16.75;7.10;;;;;;;14.88;70.90;97544.25;2083668;28;20201;-66
2023/10/01 07:02:37;;;;;;;22.45;7.15;;;;;;;15.00;70.51;97551.53;2085041;28;20237;-69
2023/10/01 07:03:38;;;;;;;15.13;6.68;;;;;;;14.94;70.74;97551.81;2085182;28;20251;-69
2023/10/01 07:04:41;;;;;;;14.77;6.68;;;;;;;15.10;70.51;97556.38;2086813;28;20201;-68
2023/10/01 07:05:51;;;;;;;16.42;7.18;;;;;;;15.76;69.42;97558.34;2084710;28;20198;-67
2023/10/01 07:06:53;;;;;;;11.45;5.32;;;;;;;15.71;69.26;97556.88;2084376;28;20194;-67
2023/10/01 07:07:55;;;;;;;14.85;6.00;;;;;;;15.86;68.81;97558.75;2084216;28;20247;-67
2023/10/01 07:08:56;;;;;;;17.67;6.30;;;;;;;16.14;68.54;97550.25;2084399;28;20202;-67
2023/10/01 07:10:00;;;;;;;15.68;5.93;;;;;;;16.23;67.93;97555.97;2084618;28;20717;-67
2023/10/01 07:11:11;;;;;;;14.57;6.32;;;;;;;16.51;67.41;97554.50;2084803;28;20236;-67
2023/10/01 07:12:13;;;;;;;13.10;5.88;;;;;;;17.06;65.89;97538.25;2081586;28;20228;-67
2023/10/01 07:13:15;;;;;;;13.00;5.95;;;;;;;17.10;65.50;97544.22;2080617;28;20198;-67
2023/10/01 07:14:30;;;;;;;16.73;6.65;;;;;;;17.89;63.64;97558.13;2085772;28;20193;-67
2023/10/01 07:15:43;;;;;;;16.27;7.03;;;;;;;17.82;63.00;97554.16;2085455;28;20669;-67
2023/10/01 07:16:45;;;;;;;15.15;6.32;;;;;;;17.73;63.56;97558.19;2086556;28;20197;-67
2023/10/01 07:17:47;;;;;;;17.50;7.32;;;;;;;17.85;62.84;97561.91;2085105;28;20682;-67
2023/10/01 07:18:49;;;;;;;14.25;7.20;;;;;;;18.65;61.46;97553.53;2084545;28;20201;-67
2023/10/01 07:20:18;;;;;;;13.38;6.43;;;;;;;18.41;61.50;97559.41;2085273;28;20242;-67
2023/10/01 07:21:19;;;;;;;15.10;6.45;;;;;;;18.68;60.69;97556.84;2085438;28;20197;-69
2023/10/01 07:22:25;;;;;;;15.23;6.82;;;;;;;18.72;60.12;97563.63;2084733;28;20720;-67
2023/10/01 07:23:27;;;;;;;15.00;6.50;;;;;;;18.66;60.85;97563.19;2084852;28;20311;-67
2023/10/01 07:24:29;;;;;;;13.25;6.50;;;;;;;18.63;60.92;97558.06;2086426;28;20206;-67
2023/10/01 07:25:43;;;;;;;15.55;6.55;;;;;;;19.26;59.62;97572.59;2086448;28;20201;-67
2023/10/01 07:26:46;;;;;;;13.68;6.10;;;;;;;19.23;59.51;97568.34;2086344;28;20194;-67
2023/10/01 07:27:48;;;;;;;14.48;6.65;;;;;;;19.03;59.39;97566.16;2086101;28;20816;-67
2023/10/01 07:28:55;;;;;;;14.05;6.95;;;;;;;18.75;60.41;97571.41;2082240;28;20245;-67
2023/10/01 07:30:01;;;;;;;13.20;6.97;;;;;;;19.12;60.11;97572.66;2082845;28;20212;-67
2023/10/01 07:31:02;;;;;;;13.93;6.35;;;;;;;18.88;59.72;97578.53;2083186;28;20200;-68
2023/10/01 07:32:11;;;;;;;12.63;7.10;;;;;;;19.14;59.60;97576.91;2086974;28;20212;-68
2023/10/01 07:33:20;;;;;;;39.45;26.25;;;;;;;18.86;60.42;97578.63;2083841;28;20362;-67
2023/10/01 07:34:26;;;;;;;15.90;9.25;;;;;;;19.28;59.25;97577.81;2088306;28;20234;-67
2023/10/01 07:35:28;;;;;;;12.13;5.80;;;;;;;19.53;58.61;97585.81;2084001;28;20196;-67
2023/10/01 07:36:31;;;;;;;13.32;6.28;;;;;;;19.37;59.30;97588.63;2083706;28;20659;-67
2023/10/01 07:37:37;;;;;;;18.73;7.30;;;;;;;20.17;57.22;97586.91;2085057;28;20193;-67
2023/10/01 07:38:49;;;;;;;18.70;6.85;;;;;;;19.62;58.66;97587.03;2085268;28;20200;-67
2023/10/01 07:40:08;;;;;;;15.23;6.45;;;;;;;19.33;59.42;97583.66;2087964;28;20189;-67
2023/10/01 07:41:13;;;;;;;12.52;6.35;;;;;;;19.79;58.83;97593.00;2085276;28;20204;-69
2023/10/01 07:42:17;;;;;;;13.77;6.63;;;;;;;20.23;56.70;97591.78;2083537;28;20197;-68
2023/10/01 07:43:18;;;;;;;17.45;7.43;;;;;;;19.78;57.81;97589.47;2085577;28;20602;-68
2023/10/01 07:44:22;;;;;;;14.30;6.57;;;;;;;20.27;57.30;97593.28;2084240;28;20295;-68
2023/10/01 07:45:24;;;;;;;16.55;7.18;;;;;;;20.16;57.32;97598.47;2085100;28;20209;-68
2023/10/01 07:46:25;;;;;;;14.82;6.85;;;;;;;21.54;54.68;97595.72;2086131;28;20193;-68
2023/10/01 07:47:31;;;;;;;14.95;7.70;;;;;;;21.35;54.55;97592.75;2084215;28;20232;-68
2023/10/01 07:48:35;;;;;;;18.52;6.63;;;;;;;20.97;55.14;97594.56;2084709;28;20201;-68
2023/10/01 07:49:49;;;;;;;14.80;6.85;;;;;;;21.23;54.91;97597.16;2085876;28;20240;-68
2023/10/01 07:50:54;;;;;;;20.92;7.45;;;;;;;20.75;55.84;97591.75;2085914;28;20208;-68
2023/10/01 07:51:56;;;;;;;13.68;6.85;;;;;;;21.21;55.45;97589.28;2089209;28;20744;-68
2023/10/01 07:53:04;;;;;;;16.05;7.18;;;;;;;20.34;56.98;97588.38;2084220;28;20249;-68
2023/10/01 07:54:12;;;;;;;13.30;6.75;;;;;;;20.65;56.78;97591.56;2084817;28;20208;-68
2023/10/01 07:55:29;;;;;;;12.05;6.57;;;;;;;20.25;57.40;97592.53;2085598;28;20197;-68
2023/10/01 07:56:32;;;;;;;16.80;7.70;;;;;;;20.23;58.58;97594.44;2083881;28;20246;-69
2023/10/01 07:57:34;;;;;;;13.60;6.53;;;;;;;20.47;58.53;97591.91;2083750;28;20280;-69
2023/10/01 07:58:48;;;;;;;14.77;7.05;;;;;;;20.70;57.52;97589.44;2085148;28;20678;-69
2023/10/01 08:00:24;;;;;;;16.40;7.25;;;;;;;20.58;57.83;97592.94;2085156;28;20240;-69
2023/10/01 08:01:42;;;;;;;15.20;6.38;;;;;;;21.29;56.96;97590.53;2080312;28;20223;-69
2023/10/01 08:04:08;;;;;;;13.83;6.70;;;;;;;22.42;54.24;97590.94;2077563;28;20431;-69
2023/10/01 08:05:10;;;;;;;17.53;7.80;;;;;;;22.53;54.32;97598.09;2078591;28;20434;-69
2023/10/01 08:06:16;;;;;;;13.93;6.40;;;;;;;22.50;54.05;97585.03;2081150;28;20427;-69
2023/10/01 08:07:22;;;;;;;9.70;5.70;;;;;;;22.93;53.37;97580.75;2078723;28;20451;-68
2023/10/01 08:08:37;;;;;;;16.07;7.30;;;;;;;23.68;51.84;97595.13;2079592;28;20439;-69
2023/10/01 08:09:39;;;;;;;10.10;4.83;;;;;;;23.36;52.92;97587.13;2079192;28;20977;-69
2023/10/01 08:10:43;;;;;;;15.07;7.10;;;;;;;23.20;53.14;97599.03;2077416;28;20459;-69
2023/10/01 08:12:05;;;;;;;17.43;7.00;;;;;;;22.94;53.32;97585.13;2077419;28;20428;-69
2023/10/01 08:13:07;;;;;;;13.93;7.13;;;;;;;22.82;53.19;97592.28;2078338;28;20466;-70
2023/10/01 08:14:10;;;;;;;15.00;7.47;;;;;;;23.04;52.95;97591.41;2079217;28;20459;-67
2023/10/01 08:15:29;;;;;;;29.87;19.47;;;;;;;23.12;52.99;97593.44;2078448;28;20891;-67
2023/10/01 08:16:43;;;;;;;18.30;11.70;;;;;;;23.44;52.44;97592.69;2081038;28;20442;-67
2023/10/01 08:17:46;;;;;;;18.60;10.10;;;;;;;23.50;52.12;97591.31;2080345;28;20454;-67
2023/10/01 08:18:57;;;;;;;18.17;7.47;;;;;;;24.20;50.47;97594.38;2081573;28;20427;-66
2023/10/01 08:20:17;;;;;;;14.13;6.60;;;;;;;24.33;50.50;97597.69;2080258;28;20449;-66
2023/10/01 08:21:18;;;;;;;13.80;6.70;;;;;;;24.00;50.83;97601.41;2080768;28;20476;-66
2023/10/01 08:22:23;;;;;;;14.70;7.17;;;;;;;24.01;50.85;97601.28;2079457;28;20423;-66
2023/10/01 08:23:26;;;;;;;20.93;7.87;;;;;;;23.81;51.40;97601.09;2077962;28;20428;-66
2023/10/01 08:24:33;;;;;;;14.00;7.27;;;;;;;23.71;51.64;97602.03;2080377;28;20524;-66
2023/10/01 08:25:42;;;;;;;14.53;7.60;;;;;;;23.63;51.26;97595.50;2080480;28;20514;-66
2023/10/01 08:26:57;;;;;;;14.00;6.90;;;;;;;23.59;51.62;97595.88;2078626;28;21069;-69
2023/10/01 08:28:26;;;;;;;11.53;6.43;;;;;;;23.85;51.60;97596.38;2077428;28;21059;-68
2023/10/01 08:29:28;;;;;;;13.90;7.03;;;;;;;25.01;49.70;97599.81;2080018;28;20431;-68
2023/10/01 08:30:39;;;;;;;17.87;7.20;;;;;;;24.68;49.84;97595.63;2079462;28;20565;-68
2023/10/01 08:32:53;;;;;;;15.33;7.43;;;;;;;24.77;49.29;97601.03;2079623;28;20541;-68
2023/10/01 08:34:22;;;;;;;18.53;8.10;;;;;;;25.11;49.18;97602.53;2079539;28;20561;-68
2023/10/01 08:35:34;;;;;;;14.30;6.60;;;;;;;25.90;47.14;97604.31;2079699;28;20435;-68
2023/10/01 08:36:36;;;;;;;15.67;7.47;;;;;;;25.34;48.31;97597.78;2079525;28;20796;-68
2023/10/01 08:37:38;;;;;;;14.60;7.17;;;;;;;25.11;48.69;97599.84;2079578;28;20454;-68
2023/10/01 08:39:19;;;;;;;13.70;6.50;;;;;;;24.78;49.68;97594.72;2077903;28;20439;-68
2023/10/01 08:40:17;;;;;;;16.67;7.33;;;;;;;24.62;49.91;97594.34;2080919;28;20518;-68
2023/10/01 08:41:35;;;;;;;15.87;6.90;;;;;;;24.69;50.02;97597.34;2080213;28;20423;-68
2023/10/01 08:42:36;;;;;;;15.37;5.93;;;;;;;25.21;49.08;97594.53;2078283;28;20969;-68
2023/10/01 08:43:43;;;;;;;17.33;7.30;;;;;;;25.52;48.49;97581.94;2080733;28;20431;-68
2023/10/01 08:44:54;;;;;;;14.45;6.78;;;;;;;24.75;48.90;97591.47;2080288;28;20523;-67
2023/10/01 08:46:00;;;;;;;14.13;7.00;;;;;;;24.89;48.70;97592.91;2079298;28;20198;-67
2023/10/01 08:47:21;;;;;;;14.03;7.10;;;;;;;24.84;49.03;97590.63;2080017;28;20438;-67
2023/10/01 08:48:23;;;;;;;14.73;6.00;;;;;;;25.02;48.64;97590.00;2078808;28;20565;-67
2023/10/01 08:49:31;;;;;;;16.63;6.57;;;;;;;25.53;48.01;97582.78;2081317;28;20427;-67
2023/10/01 08:50:37;;;;;;;13.13;6.80;;;;;;;24.77;48.33;97592.16;2080139;28;21177;-67
2023/10/01 08:51:38;;;;;;;13.02;6.43;;;;;;;25.40;47.87;97593.75;2079193;28;20773;-67
2023/10/01 08:52:52;;;;;;;15.32;7.25;;;;;;;25.40;47.70;97588.41;2079955;28;20222;-67
2023/10/01 08:53:56;;;;;;;10.77;6.05;;;;;;;25.33;47.03;97587.22;2082259;28;20216;-67
2023/10/01 08:54:57;;;;;;;11.73;5.93;;;;;;;25.43;47.08;97585.44;2084025;28;20197;-67
2023/10/01 08:57:15;;;;;;;14.05;5.75;;;;;;;24.79;48.30;97595.53;2080865;28;20289;-67
2023/10/01 08:59:25;;;;;;;12.35;6.15;;;;;;;25.47;47.23;97586.88;2079289;28;20633;-68
2023/10/01 09:00:27;;;;;;;14.10;6.25;;;;;;;25.58;46.51;97584.06;2080544;28;20201;-68
2023/10/01 09:01:29;;;;;;;10.55;5.75;;;;;;;25.74;46.69;97586.16;2081180;28;20651;-68
2023/10/01 09:02:38;;;;;;;13.27;7.00;;;;;;;25.83;46.76;97592.50;2080992;28;20331;-68
2023/10/01 09:03:47;;;;;;;13.40;6.00;;;;;;;25.94;47.03;97585.28;2081312;28;20585;-69
2023/10/01 09:04:53;;;;;;;14.00;7.00;;;;;;;25.75;46.86;97587.03;2078815;28;20516;-70
2023/10/01 09:06:06;;;;;;;12.15;6.32;;;;;;;25.70;46.70;97579.41;2079574;28;20423;-70
2023/10/01 09:07:10;;;;;;;17.73;7.60;;;;;;;26.17;46.13;97584.03;2078448;28;20194;-69
2023/10/01 09:08:29;;;;;;;13.95;5.93;;;;;;;26.62;45.21;97587.81;2077896;28;20459;-70
2023/10/01 09:09:51;;;;;;;13.70;6.57;;;;;;;26.07;45.92;97581.38;2079114;28;20201;-69
2023/10/01 09:10:56;;;;;;;11.43;5.90;;;;;;;27.45;43.40;97584.34;2078858;28;20554;-69
2023/10/01 09:11:58;;;;;;;11.30;6.00;;;;;;;27.09;44.14;97581.56;2079919;28;20434;-69
2023/10/01 09:13:03;;;;;;;12.30;5.93;;;;;;;26.92;44.30;97583.22;2077692;28;20474;-67
2023/10/01 09:14:26;;;;;;;31.13;18.63;;;;;;;26.58;44.99;97582.94;2081056;28;20502;-68
2023/10/01 09:15:29;;;;;;;21.03;13.30;;;;;;;27.08;44.48;97587.91;2079958;28;21199;-69
2023/10/01 09:16:32;;;;;;;20.80;9.97;;;;;;;27.51;43.64;97586.38;2077670;28;20420;-69
2023/10/01 09:17:56;;;;;;;36.27;25.97;;;;;;;27.91;43.06;97597.66;2081248;28;20434;-68
2023/10/01 09:19:03;;;;;;;14.60;6.60;;;;;;;27.75;42.76;97586.78;2082150;28;20950;-67
2023/10/01 09:22:22;;;;;;;16.23;6.30;;;;;;;26.57;45.18;97582.06;2075088;28;20431;-70
2023/10/01 09:23:49;;;;;;;14.07;5.93;;;;;;;27.26;44.25;97587.09;2077759;28;20919;-69
2023/10/01 09:24:55;;;;;;;17.00;7.53;;;;;;;27.51;43.27;97586.38;2078055;28;20522;-69
2023/10/01 09:26:00;;;;;;;16.70;7.30;;;;;;;27.25;43.65;97591.63;2079100;28;21125;-69
2023/10/01 09:27:18;;;;;;;18.00;7.13;;;;;;;27.35;43.52;97583.50;2078433;28;20914;-69
2023/10/01 09:28:19;;;;;;;16.60;7.40;;;;;;;27.11;44.03;97579.59;2077345;28;20498;-69
2023/10/01 09:29:25;;;;;;;15.80;7.60;;;;;;;27.92;42.68;97585.06;2076647;28;20436;-69
2023/10/01 09:30:26;;;;;;;19.33;8.10;;;;;;;27.51;42.68;97588.22;2080034;28;20431;-70
2023/10/01 09:31:29;;;;;;;14.87;7.67;;;;;;;28.18;41.82;97577.91;2077120;28;20459;-69
2023/10/01 09:32:51;;;;;;;16.30;8.33;;;;;;;29.23;40.42;97589.50;2075696;28;20427;-69
2023/10/01 09:33:55;;;;;;;18.33;8.33;;;;;;;28.40;40.49;97588.28;2079913;28;20490;-69
2023/10/01 09:34:58;;;;;;;20.63;10.30;;;;;;;27.47;41.63;97590.38;2077050;28;20424;-69
2023/10/01 09:36:00;;;;;;;17.23;7.80;;;;;;;27.68;41.09;97583.84;2078551;28;20427;-69
2023/10/01 09:38:31;;;;;;;16.47;8.20;;;;;;;28.16;41.29;97579.94;2076695;28;20443;-69
2023/10/01 09:39:41;;;;;;;16.73;7.97;;;;;;;28.63;40.02;97581.38;2078300;28;21062;-69
2023/10/01 09:40:44;;;;;;;22.13;9.37;;;;;;;29.55;38.48;97577.19;2077757;28;20481;-70
2023/10/01 09:41:46;;;;;;;17.37;8.63;;;;;;;29.47;38.55;97581.53;2077643;28;20431;-70
2023/10/01 09:42:56;;;;;;;17.80;9.37;;;;;;;28.57;40.05;97583.84;2076452;28;20484;-70
2023/10/01 09:43:58;;;;;;;20.50;9.50;;;;;;;28.54;40.55;97582.31;2077541;28;20427;-70
2023/10/01 09:45:24;;;;;;;19.07;8.60;;;;;;;29.55;39.63;97578.00;2077620;28;20428;-70
2023/10/01 09:46:34;;;;;;;16.37;7.87;;;;;;;29.33;39.62;97576.78;2079018;28;20488;-70
2023/10/01 09:47:36;;;;;;;16.37;7.30;;;;;;;28.99;40.36;97572.31;2078483;28;20488;-70
2023/10/01 09:48:48;;;;;;;18.03;8.40;;;;;;;29.26;40.34;97575.75;2079553;28;20477;-70
2023/10/01 09:49:52;;;;;;;18.40;8.43;;;;;;;28.16;41.05;97571.00;2077460;28;20554;-70
2023/10/01 09:50:57;;;;;;;16.70;8.23;;;;;;;28.67;40.71;97576.53;2078916;28;20447;-71
2023/10/01 09:52:03;;;;;;;19.50;9.90;;;;;;;28.82;40.08;97566.88;2078945;28;20438;-70
2023/10/01 09:53:12;;;;;;;16.37;8.47;;;;;;;29.11;39.33;97573.69;2077124;28;20612;-70
2023/10/01 09:54:28;;;;;;;16.00;9.17;;;;;;;29.30;38.97;97577.97;2076985;28;20427;-70
2023/10/01 09:55:31;;;;;;;18.77;9.07;;;;;;;29.21;39.34;97573.53;2077507;28;20509;-69
2023/10/01 09:57:43;;;;;;;16.47;8.77;;;;;;;29.46;39.15;97569.09;2077204;28;20459;-69
2023/10/01 09:58:46;;;;;;;19.77;9.00;;;;;;;28.99;39.40;97567.78;2078056;28;20441;-69
2023/10/01 09:59:49;;;;;;;19.00;9.30;;;;;;;29.47;39.33;97572.59;2077299;28;20432;-69
2023/10/01 10:00:55;;;;;;;15.43;8.23;;;;;;;30.32;38.23;97562.53;2079204;28;20510;-70
2023/10/01 10:02:02;;;;;;;16.87;8.87;;;;;;;29.94;38.97;97561.25;2078639;28;20934;-69
2023/10/01 10:03:09;;;;;;;15.07;8.73;;;;;;;29.42;40.00;97559.69;2077345;28;20569;-69
2023/10/01 10:04:20;;;;;;;15.10;8.77;;;;;;;29.24;39.94;97564.31;2076774;28;20427;-69
2023/10/01 10:05:26;;;;;;;15.67;7.80;;;;;;;29.42;39.82;97564.19;2078464;28;20454;-69
2023/10/01 10:06:29;;;;;;;20.67;8.30;;;;;;;30.03;39.56;97556.69;2079425;28;20423;-69
2023/10/01 10:07:32;;;;;;;13.10;7.30;;;;;;;30.52;38.58;97561.16;2078031;28;20939;-69
2023/10/01 10:08:39;;;;;;;16.47;8.17;;;;;;;30.73;38.44;97552.50;2076973;28;20439;-69
2023/10/01 10:09:42;;;;;;;15.17;8.07;;;;;;;30.50;38.37;97552.41;2078374;28;20437;-69
2023/10/01 10:10:55;;;;;;;15.70;8.13;;;;;;;29.70;39.17;97553.13;2077268;28;20846;-69
2023/10/01 10:12:01;;;;;;;15.13;7.40;;;;;;;30.10;39.11;97562.22;2077457;28;20461;-69
2023/10/01 10:13:33;;;;;;;17.20;8.50;;;;;;;29.19;39.45;97551.34;2076166;28;20470;-69
2023/10/01 10:14:35;;;;;;;14.80;8.03;;;;;;;29.15;40.11;97553.53;2077654;28;20438;-69
2023/10/01 10:15:56;;;;;;;17.37;8.43;;;;;;;30.50;38.79;97548.88;2078792;28;20436;-69
2023/10/01 10:17:00;;;;;;;15.10;7.40;;;;;;;31.13;38.30;97551.66;2078594;28;20446;-70
2023/10/01 10:18:15;;;;;;;14.83;7.87;;;;;;;30.41;38.44;97542.63;2073053;28;20978;-70
2023/10/01 10:19:20;;;;;;;14.57;7.10;;;;;;;30.32;39.13;97540.97;2066772;28;20428;-69
2023/10/01 10:20:25;;;;;;;15.47;8.17;;;;;;;30.44;38.40;97547.69;2067063;28;20444;-69
2023/10/01 10:21:36;;;;;;;14.90;7.87;;;;;;;29.97;39.21;97549.28;2077874;28;20415;-69
2023/10/01 10:22:38;;;;;;;14.93;8.30;;;;;;;30.16;38.85;97539.16;2077729;28;20450;-69
2023/10/01 10:23:55;;;;;;;13.53;8.50;;;;;;;30.79;38.52;97540.16;2078989;28;20459;-69
2023/10/01 10:25:19;;;;;;;18.40;8.27;;;;;;;30.49;38.84;97536.41;2076655;28;20429;-69
2023/10/01 10:26:56;;;;;;;18.63;8.33;;;;;;;29.65;39.33;97537.50;2076981;28;20422;-69
2023/10/01 10:28:05;;;;;;;15.00;7.90;;;;;;;30.31;38.97;97540.16;2077324;28;20459;-69
2023/10/01 10:29:10;;;;;;;12.27;6.47;;;;;;;29.35;40.44;97530.94;2078465;28;20427;-69
2023/10/01 10:30:15;;;;;;;19.50;8.43;;;;;;;29.65;39.81;97527.56;2077445;28;20495;-69
2023/10/01 10:31:29;;;;;;;15.90;7.67;;;;;;;30.26;39.05;97529.06;2077135;28;20462;-69
2023/10/01 10:32:44;;;;;;;15.47;8.20;;;;;;;30.59;38.64;97529.81;2074498;28;21029;-68
2023/10/01 10:34:21;;;;;;;18.30;7.40;;;;;;;29.55;39.35;97528.75;2077766;28;20438;-69
2023/10/01 10:35:23;;;;;;;18.23;7.67;;;;;;;28.73;41.10;97538.28;2078060;28;20833;-69
2023/10/01 10:36:49;;;;;;;14.60;8.50;;;;;;;30.00;38.97;97530.09;2075727;28;20424;-70
2023/10/01 10:37:56;;;;;;;17.90;7.50;;;;;;;29.91;39.04;97523.88;2077707;28;20557;-69
2023/10/01 10:38:57;;;;;;;15.40;7.77;;;;;;;30.04;38.75;97515.31;2077993;28;20986;-70
2023/10/01 10:40:04;;;;;;;17.73;7.90;;;;;;;29.68;39.20;97518.31;2076174;28;20467;-69
2023/10/01 10:41:05;;;;;;;18.30;8.43;;;;;;;29.80;39.23;97521.50;2076236;28;20458;-69
2023/10/01 10:42:28;;;;;;;16.03;7.83;;;;;;;27.87;40.62;97523.81;2076902;28;20510;-69
2023/10/01 10:43:33;;;;;;;17.07;7.77;;;;;;;29.12;39.23;97526.16;2076251;28;20464;-69
2023/10/01 10:45:42;;;;;;;16.40;8.10;;;;;;;28.41;40.31;97522.84;2077486;28;20458;-69
2023/10/01 10:47:04;;;;;;;17.27;7.00;;;;;;;29.92;39.11;97514.78;2078073;28;20949;-69
2023/10/01 10:48:07;;;;;;;14.63;7.33;;;;;;;30.08;38.53;97518.47;2075978;28;20984;-69
2023/10/01 10:49:12;;;;;;;13.50;7.80;;;;;;;30.40;38.51;97522.13;2077396;28;20428;-69
2023/10/01 10:50:15;;;;;;;17.10;7.90;;;;;;;30.75;38.01;97515.44;2077329;28;20453;-69
2023/10/01 10:51:43;;;;;;;15.73;7.53;;;;;;;30.19;39.02;97518.09;2077941;28;20435;-69
2023/10/01 10:52:50;;;;;;;13.83;8.10;;;;;;;30.29;39.24;97521.44;2077325;28;20463;-69
2023/10/01 10:53:58;;;;;;;14.80;7.50;;;;;;;30.91;38.19;97516.38;2079172;28;20435;-70
2023/10/01 10:55:16;;;;;;;20.40;7.33;;;;;;;31.23;37.55;97522.59;2074931;28;20431;-69
2023/10/01 10:56:17;;;;;;;15.07;6.70;;;;;;;30.98;38.00;97516.50;2078588;28;20768;-69
2023/10/01 10:57:25;;;;;;;17.73;7.93;;;;;;;30.28;38.38;97510.84;2075712;28;20881;-69
2023/10/01 10:58:31;;;;;;;15.50;7.20;;;;;;;29.75;39.54;97524.72;2077169;28;20488;-69
2023/10/01 10:59:33;;;;;;;16.33;7.17;;;;;;;29.38;39.48;97520.69;2077715;28;20430;-69
2023/10/01 11:00:39;;;;;;;15.30;7.73;;;;;;;28.76;40.25;97529.03;2076770;28;20431;-70
2023/10/01 11:01:44;;;;;;;17.77;8.10;;;;;;;29.14;40.04;97513.38;2078556;28;20427;-69
2023/10/01 11:02:53;;;;;;;16.93;7.97;;;;;;;28.83;40.02;97530.91;2077522;28;20451;-69
2023/10/01 11:03:59;;;;;;;16.80;7.70;;;;;;;29.85;39.96;97526.38;2077402;28;20912;-69
2023/10/01 11:05:06;;;;;;;12.60;6.60;;;;;;;30.36;38.76;97527.00;2077051;28;20427;-69
2023/10/01 11:06:21;;;;;;;17.33;8.23;;;;;;;30.51;38.52;97521.75;2076012;28;20424;-69
2023/10/01 11:07:35;;;;;;;14.70;7.40;;;;;;;30.28;38.41;97524.31;2078448;28;20457;-69
2023/10/01 11:08:37;;;;;;;15.50;7.87;;;;;;;29.49;39.56;97522.19;2078142;28;20430;-69
2023/10/01 11:09:38;;;;;;;16.23;7.47;;;;;;;29.96;39.62;97523.38;2077386;28;20442;-69
2023/10/01 11:10:47;;;;;;;17.40;8.40;;;;;;;29.77;39.04;97528.06;2077854;28;20483;-69
2023/10/01 11:11:49;;;;;;;13.83;7.80;;;;;;;29.74;39.23;97522.19;2077430;28;20519;-69
2023/10/01 11:12:54;;;;;;;18.47;8.27;;;;;;;28.33;41.56;97519.09;2078147;28;20931;-67
2023/10/01 11:14:00;;;;;;;18.95;7.70;;;;;;;29.06;40.71;97524.94;2077005;28;20434;-67
2023/10/01 11:15:19;;;;;;;18.00;7.45;;;;;;;29.49;39.92;97514.94;2077304;28;20201;-68
2023/10/01 11:16:24;;;;;;;17.55;7.95;;;;;;;28.46;41.34;97518.66;2078096;28;20194;-71
2023/10/01 11:17:26;;;;;;;15.90;8.50;;;;;;;28.46;41.40;97518.66;2078433;28;20208;-69
2023/10/01 11:18:27;;;;;;;17.27;7.65;;;;;;;28.82;41.01;97514.97;2077501;28;20978;-71
2023/10/01 11:19:35;;;;;;;15.38;7.28;;;;;;;28.00;41.75;97520.72;2076554;28;20198;-69
2023/10/01 11:20:45;;;;;;;19.73;8.27;;;;;;;28.43;40.31;97516.31;2076186;28;20242;-72
2023/10/01 11:22:00;;;;;;;18.25;8.45;;;;;;;28.55;40.15;97519.53;2076109;28;20198;-71
2023/10/01 11:23:02;;;;;;;14.98;8.05;;;;;;;27.84;41.85;97511.53;2074617;28;20221;-70
2023/10/01 11:24:04;;;;;;;19.52;8.60;;;;;;;29.70;39.74;97513.63;2078038;28;20294;-70
2023/10/01 11:25:12;;;;;;;19.80;8.60;;;;;;;29.49;39.36;97517.63;2078078;28;20727;-72
2023/10/01 11:26:26;;;;;;;20.92;7.75;;;;;;;29.80;39.12;97518.81;2078564;28;20255;-71
2023/10/01 11:27:45;;;;;;;17.63;7.53;;;;;;;29.98;39.17;97505.22;2075341;28;20707;-71
2023/10/01 11:28:46;;;;;;;14.60;7.87;;;;;;;30.12;38.29;97511.75;2076086;28;20198;-71
2023/10/01 11:29:58;;;;;;;16.80;7.70;;;;;;;30.13;39.92;97506.19;2076799;28;20967;-72
2023/10/01 11:31:17;;;;;;;16.97;8.60;;;;;;;30.29;40.70;97512.53;2076382;28;20431;-72
2023/10/01 11:32:19;;;;;;;15.17;7.67;;;;;;;29.33;39.14;97512.25;2077440;28;20498;-71
2023/10/01 11:33:29;;;;;;;21.73;8.57;;;;;;;29.44;39.48;97508.41;2078288;28;20430;-72
2023/10/01 11:34:43;;;;;;;18.80;7.83;;;;;;;30.37;38.82;97503.59;2078371;28;20435;-72
2023/10/01 11:35:59;;;;;;;13.90;7.63;;;;;;;30.50;38.83;97501.22;2078386;28;20818;-73
2023/10/01 11:37:11;;;;;;;17.43;7.97;;;;;;;31.23;37.92;97506.44;2075910;28;20466;-72
2023/10/01 11:38:21;;;;;;;17.93;8.40;;;;;;;30.17;38.77;97498.63;2074762;28;20531;-72
2023/10/01 11:39:38;;;;;;;15.90;8.30;;;;;;;31.50;39.43;97491.53;2076184;28;20506;-72
2023/10/01 11:42:01;;;;;;;14.93;8.40;;;;;;;29.92;39.15;97493.25;2079710;28;20430;-72
2023/10/01 11:43:05;;;;;;;22.20;8.80;;;;;;;29.67;40.41;97491.59;2079138;28;20458;-72
2023/10/01 11:44:09;;;;;;;16.60;7.63;;;;;;;29.07;40.87;97480.09;2080216;28;20488;-72
2023/10/01 11:45:28;;;;;;;15.60;8.13;;;;;;;30.49;39.31;97485.22;2079216;28;20483;-72
2023/10/01 11:46:35;;;;;;;15.80;8.70;;;;;;;30.25;39.22;97487.81;2079324;28;20423;-71
2023/10/01 11:48:04;;;;;;;16.37;8.53;;;;;;;29.69;39.83;97479.66;2079083;28;21143;-71
2023/10/01 11:49:08;;;;;;;23.00;8.33;;;;;;;29.80;40.16;97483.81;2077379;28;20427;-72
2023/10/01 11:50:11;;;;;;;18.63;9.00;;;;;;;29.69;39.82;97474.25;2078470;28;20459;-72
2023/10/01 11:51:26;;;;;;;18.13;9.27;;;;;;;29.77;40.18;97474.25;2077682;28;21133;-71
2023/10/01 11:52:28;;;;;;;21.73;8.10;;;;;;;28.60;40.67;97474.22;2086639;28;20468;-72
2023/10/01 11:53:29;;;;;;;15.50;7.90;;;;;;;28.73;41.43;97468.41;2087715;28;20480;-71
2023/10/01 11:54:44;;;;;;;15.70;8.70;;;;;;;29.65;40.77;97464.84;2078826;28;20435;-71
2023/10/01 11:55:45;;;;;;;21.77;9.63;;;;;;;28.48;41.99;97470.16;2079996;28;20480;-71
2023/10/01 11:57:06;;;;;;;18.00;10.90;;;;;;;26.99;43.40;97461.03;2079695;28;20445;-71
2023/10/01 11:58:16;;;;;;;17.30;7.85;;;;;;;27.22;43.63;97473.97;2077969;28;20469;-70
2023/10/01 11:59:18;;;;;;;20.25;8.48;;;;;;;28.19;42.24;97461.47;2079421;28;20668;-70
2023/10/01 12:00:52;;;;;;;16.30;8.43;;;;;;;29.52;40.98;97462.66;2080174;28;20288;-70
2023/10/01 12:01:49;;;;;;;19.77;9.27;;;;;;;30.72;39.33;97463.75;2079093;28;20438;-70
2023/10/01 12:02:58;;;;;;;17.98;9.15;;;;;;;30.19;38.87;97458.88;2077751;28;20455;-70
2023/10/01 12:04:00;;;;;;;15.53;7.77;;;;;;;29.90;40.37;97459.47;2078660;28;20212;-70
2023/10/01 12:05:06;;;;;;;15.67;7.70;;;;;;;30.85;38.79;97453.22;2079362;28;20431;-70
2023/10/01 12:06:08;;;;;;;15.30;8.20;;;;;;;31.58;38.64;97450.19;2078816;28;20435;-70
2023/10/01 12:07:17;;;;;;;16.97;8.57;;;;;;;32.32;37.89;97448.63;2078313;28;20480;-70
2023/10/01 12:08:21;;;;;;;12.77;7.73;;;;;;;31.87;36.80;97445.84;2086057;28;20483;-70
2023/10/01 12:09:24;;;;;;;18.63;8.17;;;;;;;30.94;37.98;97451.28;2086857;28;20426;-70
2023/10/01 12:10:32;;;;;;;16.83;9.00;;;;;;;28.45;41.81;97452.50;2079640;28;20443;-70
2023/10/01 12:11:36;;;;;;;14.10;8.00;;;;;;;28.07;42.11;97448.50;2079167;28;20439;-70
2023/10/01 12:12:38;;;;;;;19.73;8.83;;;;;;;28.14;42.28;97453.06;2077270;28;20478;-70
2023/10/01 12:13:40;;;;;;;17.40;9.10;;;;;;;28.37;42.09;97451.63;2078977;28;20423;-70
2023/10/01 12:14:54;;;;;;;22.00;10.47;;;;;;;28.06;42.82;97446.81;2080037;28;20427;-70
2023/10/01 12:15:56;;;;;;;20.90;7.80;;;;;;;28.74;41.81;97445.94;2078783;28;20786;-69
2023/10/01 12:17:01;;;;;;;17.52;8.05;;;;;;;25.96;45.30;97444.22;2077060;28;20558;-70
2023/10/01 12:18:07;;;;;;;18.40;8.73;;;;;;;27.21;44.34;97446.34;2076684;28;20221;-69